createdAt,value
2022-08-07T00:02:35.660Z,384
2022-08-07T00:22:04.067Z,384
2022-08-07T00:42:05.067Z,386
2022-08-07T01:02:04.152Z,384
2022-08-07T01:42:07.808Z,384
2022-08-07T02:02:04.562Z,387
2022-08-07T02:22:04.200Z,387
2022-08-07T02:42:09.973Z,390
2022-08-07T03:02:04.263Z,391
2022-08-07T03:22:04.252Z,390
2022-08-07T03:42:04.280Z,386
2022-08-07T04:02:04.307Z,391
2022-08-07T04:42:04.343Z,387
2022-08-07T05:02:04.364Z,388
2022-08-07T05:22:04.660Z,391
2022-08-07T05:42:07.426Z,392
2022-08-07T06:02:04.500Z,393
2022-08-07T06:22:12.394Z,400
2022-08-07T06:42:04.708Z,400
2022-08-07T07:02:04.582Z,393
2022-08-07T07:22:12.442Z,395
2022-08-07T07:42:08.958Z,395
2022-08-07T08:02:10.254Z,402
2022-08-07T08:22:04.576Z,403
2022-08-07T08:42:04.624Z,399
2022-08-07T09:02:04.654Z,397
2022-08-07T09:22:22.777Z,397
2022-08-07T09:42:05.961Z,391
2022-08-07T10:02:04.648Z,393
2022-08-07T10:22:15.265Z,389
2022-08-07T10:42:09.652Z,395
2022-08-07T11:02:05.553Z,389
2022-08-07T11:22:04.504Z,394
2022-08-07T11:42:04.721Z,384
2022-08-07T12:02:04.799Z,383
2022-08-07T12:22:36.793Z,384
2022-08-07T12:42:04.784Z,387
2022-08-07T13:02:09.744Z,384
2022-08-07T13:22:12.579Z,380
2022-08-07T13:42:04.792Z,384
2022-08-07T14:02:05.234Z,378
2022-08-07T14:22:11.513Z,376
2022-08-07T14:42:18.983Z,380
2022-08-07T15:02:04.831Z,376
2022-08-07T15:22:06.329Z,377
2022-08-07T15:42:45.481Z,375
2022-08-07T16:02:04.924Z,372
2022-08-07T16:22:10.668Z,374
2022-08-07T17:22:04.914Z,378
2022-08-07T18:22:11.369Z,369
2022-08-07T18:42:05.039Z,370
2022-08-07T19:02:17.896Z,378
2022-08-07T19:22:05.239Z,374
2022-08-07T19:42:06.072Z,375
2022-08-07T20:02:04.997Z,374
2022-08-07T20:22:06.537Z,374
2022-08-07T20:42:04.529Z,380
2022-08-07T21:02:04.874Z,375
2022-08-07T21:22:05.064Z,379
2022-08-07T21:42:07.478Z,377
2022-08-07T22:02:08.021Z,379
2022-08-07T22:22:11.060Z,378
2022-08-07T22:42:19.207Z,379
2022-08-07T23:02:04.943Z,379
2022-08-07T23:22:05.152Z,381
2022-08-07T23:42:05.648Z,383
